sensor_id;sensor_type;location;lat;lon;timestamp;P1;durP1;ratioP1;P2;durP2;ratioP2
35223;SDS011;21367;51.930;8.112;2022-08-19T00:04:20;16.25;;;8.32;;
35223;SDS011;21367;51.930;8.112;2022-08-19T00:09:27;18.05;;;8.88;;
35223;SDS011;21367;51.930;8.112;2022-08-19T00:14:32;20.40;;;9.13;;
35223;SDS011;21367;51.930;8.112;2022-08-19T00:19:36;15.63;;;9.00;;
35223;SDS011;21367;51.930;8.112;2022-08-19T00:24:43;21.40;;;8.85;;
35223;SDS011;21367;51.930;8.112;2022-08-19T00:29:47;15.25;;;8.23;;
35223;SDS011;21367;51.930;8.112;2022-08-19T00:34:51;18.00;;;8.57;;
35223;SDS011;21367;51.930;8.112;2022-08-19T00:39:58;15.20;;;8.43;;
35223;SDS011;21367;51.930;8.112;2022-08-19T00:45:03;20.17;;;9.95;;
35223;SDS011;21367;51.930;8.112;2022-08-19T00:50:16;17.02;;;9.43;;
35223;SDS011;21367;51.930;8.112;2022-08-19T01:00:29;23.75;;;10.85;;
35223;SDS011;21367;51.930;8.112;2022-08-19T01:05:36;21.90;;;11.18;;
35223;SDS011;21367;51.930;8.112;2022-08-19T01:10:46;21.45;;;11.48;;
35223;SDS011;21367;51.930;8.112;2022-08-19T01:15:54;19.65;;;11.35;;
35223;SDS011;21367;51.930;8.112;2022-08-19T01:21:01;25.40;;;12.48;;
35223;SDS011;21367;51.930;8.112;2022-08-19T01:26:13;17.60;;;11.07;;
35223;SDS011;21367;51.930;8.112;2022-08-19T01:31:18;16.92;;;10.43;;
35223;SDS011;21367;51.930;8.112;2022-08-19T01:36:24;19.70;;;9.93;;
35223;SDS011;21367;51.930;8.112;2022-08-19T01:41:33;17.52;;;10.85;;
35223;SDS011;21367;51.930;8.112;2022-08-19T01:46:38;24.42;;;11.18;;
35223;SDS011;21367;51.930;8.112;2022-08-19T01:51:41;17.42;;;10.93;;
35223;SDS011;21367;51.930;8.112;2022-08-19T01:56:48;25.90;;;11.88;;
35223;SDS011;21367;51.930;8.112;2022-08-19T02:01:53;21.73;;;12.20;;
35223;SDS011;21367;51.930;8.112;2022-08-19T02:06:57;22.08;;;10.45;;
35223;SDS011;21367;51.930;8.112;2022-08-19T02:12:04;21.08;;;12.30;;
35223;SDS011;21367;51.930;8.112;2022-08-19T02:17:09;25.35;;;11.60;;
35223;SDS011;21367;51.930;8.112;2022-08-19T02:22:13;26.08;;;12.75;;
35223;SDS011;21367;51.930;8.112;2022-08-19T02:27:20;20.95;;;12.75;;
35223;SDS011;21367;51.930;8.112;2022-08-19T02:32:24;23.77;;;13.40;;
35223;SDS011;21367;51.930;8.112;2022-08-19T02:37:28;31.10;;;14.07;;
35223;SDS011;21367;51.930;8.112;2022-08-19T02:42:46;21.10;;;13.38;;
35223;SDS011;21367;51.930;8.112;2022-08-19T02:47:50;24.45;;;13.75;;
35223;SDS011;21367;51.930;8.112;2022-08-19T02:52:55;33.28;;;14.63;;
35223;SDS011;21367;51.930;8.112;2022-08-19T02:58:01;27.92;;;16.48;;
35223;SDS011;21367;51.930;8.112;2022-08-19T03:03:06;26.00;;;15.90;;
35223;SDS011;21367;51.930;8.112;2022-08-19T03:08:10;25.08;;;15.45;;
35223;SDS011;21367;51.930;8.112;2022-08-19T03:13:17;25.58;;;15.57;;
35223;SDS011;21367;51.930;8.112;2022-08-19T03:18:21;25.38;;;16.25;;
35223;SDS011;21367;51.930;8.112;2022-08-19T03:23:25;30.40;;;16.15;;
35223;SDS011;21367;51.930;8.112;2022-08-19T03:28:31;28.55;;;15.52;;
35223;SDS011;21367;51.930;8.112;2022-08-19T03:33:36;24.08;;;15.63;;
35223;SDS011;21367;51.930;8.112;2022-08-19T03:38:41;25.00;;;15.90;;
35223;SDS011;21367;51.930;8.112;2022-08-19T03:43:49;29.35;;;15.85;;
35223;SDS011;21367;51.930;8.112;2022-08-19T03:48:54;25.25;;;14.80;;
35223;SDS011;21367;51.930;8.112;2022-08-19T03:54:00;29.70;;;15.75;;
35223;SDS011;21367;51.930;8.112;2022-08-19T03:59:10;27.35;;;15.57;;
35223;SDS011;21367;51.930;8.112;2022-08-19T04:04:20;32.65;;;16.30;;
35223;SDS011;21367;51.930;8.112;2022-08-19T04:09:24;26.00;;;15.18;;
35223;SDS011;21367;51.930;8.112;2022-08-19T04:14:31;27.83;;;15.70;;
35223;SDS011;21367;51.930;8.112;2022-08-19T04:19:36;28.73;;;15.90;;
35223;SDS011;21367;51.930;8.112;2022-08-19T04:24:40;32.00;;;15.85;;
35223;SDS011;21367;51.930;8.112;2022-08-19T04:29:46;25.75;;;14.82;;
35223;SDS011;21367;51.930;8.112;2022-08-19T04:34:50;24.13;;;15.45;;
35223;SDS011;21367;51.930;8.112;2022-08-19T04:39:59;27.70;;;16.60;;
35223;SDS011;21367;51.930;8.112;2022-08-19T04:45:17;28.80;;;16.27;;
35223;SDS011;21367;51.930;8.112;2022-08-19T04:50:22;26.50;;;16.10;;
35223;SDS011;21367;51.930;8.112;2022-08-19T04:55:26;29.42;;;17.73;;
35223;SDS011;21367;51.930;8.112;2022-08-19T05:00:33;35.35;;;19.33;;
35223;SDS011;21367;51.930;8.112;2022-08-19T05:10:41;36.58;;;20.83;;
35223;SDS011;21367;51.930;8.112;2022-08-19T05:15:56;31.52;;;18.95;;
35223;SDS011;21367;51.930;8.112;2022-08-19T05:21:04;31.65;;;18.70;;
35223;SDS011;21367;51.930;8.112;2022-08-19T05:26:21;36.08;;;20.50;;
35223;SDS011;21367;51.930;8.112;2022-08-19T05:31:28;38.90;;;19.42;;
35223;SDS011;21367;51.930;8.112;2022-08-19T05:36:34;31.95;;;19.50;;
35223;SDS011;21367;51.930;8.112;2022-08-19T05:41:40;36.67;;;20.48;;
35223;SDS011;21367;51.930;8.112;2022-08-19T05:46:48;38.92;;;22.00;;
35223;SDS011;21367;51.930;8.112;2022-08-19T05:51:53;37.85;;;20.67;;
35223;SDS011;21367;51.930;8.112;2022-08-19T05:57:00;59.00;;;23.73;;
35223;SDS011;21367;51.930;8.112;2022-08-19T06:02:07;51.42;;;22.98;;
35223;SDS011;21367;51.930;8.112;2022-08-19T06:07:12;40.83;;;22.58;;
35223;SDS011;21367;51.930;8.112;2022-08-19T06:12:16;40.55;;;23.38;;
35223;SDS011;21367;51.930;8.112;2022-08-19T06:17:22;41.47;;;21.27;;
35223;SDS011;21367;51.930;8.112;2022-08-19T06:22:26;31.92;;;20.23;;
35223;SDS011;21367;51.930;8.112;2022-08-19T06:27:31;41.60;;;21.02;;
35223;SDS011;21367;51.930;8.112;2022-08-19T06:32:37;42.92;;;20.60;;
35223;SDS011;21367;51.930;8.112;2022-08-19T06:42:44;34.03;;;19.50;;
35223;SDS011;21367;51.930;8.112;2022-08-19T06:47:51;33.85;;;18.20;;
35223;SDS011;21367;51.930;8.112;2022-08-19T06:52:56;49.65;;;20.40;;
35223;SDS011;21367;51.930;8.112;2022-08-19T06:58:01;33.22;;;17.80;;
35223;SDS011;21367;51.930;8.112;2022-08-19T07:03:08;34.85;;;20.00;;
35223;SDS011;21367;51.930;8.112;2022-08-19T07:08:11;33.00;;;18.85;;
35223;SDS011;21367;51.930;8.112;2022-08-19T07:13:15;36.67;;;17.85;;
35223;SDS011;21367;51.930;8.112;2022-08-19T07:18:22;31.85;;;16.15;;
35223;SDS011;21367;51.930;8.112;2022-08-19T07:28:29;29.95;;;13.18;;
35223;SDS011;21367;51.930;8.112;2022-08-19T07:33:35;23.92;;;12.13;;
35223;SDS011;21367;51.930;8.112;2022-08-19T07:38:39;27.02;;;13.07;;
35223;SDS011;21367;51.930;8.112;2022-08-19T07:43:45;31.27;;;14.48;;
35223;SDS011;21367;51.930;8.112;2022-08-19T07:48:52;27.45;;;11.70;;
35223;SDS011;21367;51.930;8.112;2022-08-19T07:53:55;24.13;;;12.45;;
35223;SDS011;21367;51.930;8.112;2022-08-19T07:59:03;29.42;;;12.88;;
35223;SDS011;21367;51.930;8.112;2022-08-19T08:04:11;30.30;;;12.05;;
35223;SDS011;21367;51.930;8.112;2022-08-19T08:09:29;27.38;;;12.27;;
35223;SDS011;21367;51.930;8.112;2022-08-19T08:14:37;24.05;;;12.30;;
35223;SDS011;21367;51.930;8.112;2022-08-19T08:19:46;22.42;;;10.88;;
35223;SDS011;21367;51.930;8.112;2022-08-19T08:24:51;23.48;;;11.38;;
35223;SDS011;21367;51.930;8.112;2022-08-19T08:29:55;24.65;;;11.55;;
35223;SDS011;21367;51.930;8.112;2022-08-19T08:35:01;20.80;;;8.98;;
35223;SDS011;21367;51.930;8.112;2022-08-19T08:40:06;16.85;;;7.88;;
35223;SDS011;21367;51.930;8.112;2022-08-19T08:45:19;12.18;;;8.20;;
35223;SDS011;21367;51.930;8.112;2022-08-19T08:50:28;23.77;;;8.35;;
35223;SDS011;21367;51.930;8.112;2022-08-19T08:55:39;16.83;;;8.43;;
35223;SDS011;21367;51.930;8.112;2022-08-19T09:00:45;22.90;;;9.20;;
35223;SDS011;21367;51.930;8.112;2022-08-19T09:05:56;15.15;;;7.07;;
35223;SDS011;21367;51.930;8.112;2022-08-19T09:11:06;17.33;;;8.45;;
35223;SDS011;21367;51.930;8.112;2022-08-19T09:16:15;13.52;;;6.80;;
35223;SDS011;21367;51.930;8.112;2022-08-19T09:21:24;20.20;;;8.32;;
35223;SDS011;21367;51.930;8.112;2022-08-19T09:26:29;16.17;;;7.32;;
35223;SDS011;21367;51.930;8.112;2022-08-19T09:31:33;15.55;;;8.75;;
35223;SDS011;21367;51.930;8.112;2022-08-19T09:36:39;19.08;;;8.45;;
35223;SDS011;21367;51.930;8.112;2022-08-19T09:41:43;16.98;;;8.80;;
35223;SDS011;21367;51.930;8.112;2022-08-19T09:46:47;22.58;;;9.20;;
35223;SDS011;21367;51.930;8.112;2022-08-19T09:51:54;18.17;;;9.18;;
35223;SDS011;21367;51.930;8.112;2022-08-19T09:56:58;19.27;;;8.43;;
35223;SDS011;21367;51.930;8.112;2022-08-19T10:02:03;20.23;;;8.93;;
35223;SDS011;21367;51.930;8.112;2022-08-19T10:07:10;14.38;;;8.27;;
35223;SDS011;21367;51.930;8.112;2022-08-19T10:12:14;11.95;;;7.03;;
35223;SDS011;21367;51.930;8.112;2022-08-19T10:17:18;12.55;;;7.40;;
35223;SDS011;21367;51.930;8.112;2022-08-19T10:22:24;16.00;;;8.60;;
35223;SDS011;21367;51.930;8.112;2022-08-19T10:27:28;10.98;;;6.60;;
35223;SDS011;21367;51.930;8.112;2022-08-19T10:32:32;14.65;;;5.93;;
35223;SDS011;21367;51.930;8.112;2022-08-19T10:37:38;18.70;;;5.13;;
35223;SDS011;21367;51.930;8.112;2022-08-19T10:42:42;8.18;;;4.57;;
35223;SDS011;21367;51.930;8.112;2022-08-19T10:47:46;9.40;;;4.43;;
35223;SDS011;21367;51.930;8.112;2022-08-19T10:52:53;6.60;;;3.83;;
35223;SDS011;21367;51.930;8.112;2022-08-19T10:57:56;9.32;;;3.22;;
35223;SDS011;21367;51.930;8.112;2022-08-19T11:03:00;7.07;;;3.10;;
35223;SDS011;21367;51.930;8.112;2022-08-19T11:08:07;7.82;;;2.83;;
35223;SDS011;21367;51.930;8.112;2022-08-19T11:13:12;4.05;;;2.80;;
35223;SDS011;21367;51.930;8.112;2022-08-19T11:18:16;6.77;;;2.60;;
35223;SDS011;21367;51.930;8.112;2022-08-19T11:23:22;6.68;;;2.65;;
35223;SDS011;21367;51.930;8.112;2022-08-19T11:28:26;4.93;;;2.80;;
35223;SDS011;21367;51.930;8.112;2022-08-19T11:33:29;5.65;;;2.70;;
35223;SDS011;21367;51.930;8.112;2022-08-19T11:43:41;14.15;;;3.30;;
35223;SDS011;21367;51.930;8.112;2022-08-19T11:48:44;8.07;;;3.60;;
35223;SDS011;21367;51.930;8.112;2022-08-19T11:53:51;7.05;;;3.95;;
35223;SDS011;21367;51.930;8.112;2022-08-19T11:58:56;10.45;;;3.67;;
35223;SDS011;21367;51.930;8.112;2022-08-19T12:04:00;8.57;;;3.20;;
35223;SDS011;21367;51.930;8.112;2022-08-19T12:09:10;6.68;;;3.00;;
35223;SDS011;21367;51.930;8.112;2022-08-19T12:14:16;9.40;;;3.10;;
35223;SDS011;21367;51.930;8.112;2022-08-19T12:19:20;4.70;;;2.45;;
35223;SDS011;21367;51.930;8.112;2022-08-19T12:24:29;5.15;;;2.50;;
35223;SDS011;21367;51.930;8.112;2022-08-19T12:29:34;6.88;;;2.50;;
35223;SDS011;21367;51.930;8.112;2022-08-19T12:34:37;7.18;;;2.70;;
35223;SDS011;21367;51.930;8.112;2022-08-19T12:39:45;6.97;;;2.42;;
35223;SDS011;21367;51.930;8.112;2022-08-19T12:44:49;7.43;;;2.35;;
35223;SDS011;21367;51.930;8.112;2022-08-19T12:49:53;4.10;;;2.50;;
35223;SDS011;21367;51.930;8.112;2022-08-19T12:55:00;9.57;;;2.33;;
35223;SDS011;21367;51.930;8.112;2022-08-19T13:00:07;5.03;;;2.70;;
35223;SDS011;21367;51.930;8.112;2022-08-19T13:05:16;6.55;;;2.35;;
35223;SDS011;21367;51.930;8.112;2022-08-19T13:10:29;4.28;;;2.80;;
35223;SDS011;21367;51.930;8.112;2022-08-19T13:15:36;10.63;;;2.65;;
35223;SDS011;21367;51.930;8.112;2022-08-19T13:20:43;3.47;;;2.63;;
35223;SDS011;21367;51.930;8.112;2022-08-19T13:25:57;3.10;;;2.67;;
35223;SDS011;21367;51.930;8.112;2022-08-19T13:31:02;9.32;;;2.97;;
35223;SDS011;21367;51.930;8.112;2022-08-19T13:36:18;7.00;;;2.60;;
35223;SDS011;21367;51.930;8.112;2022-08-19T13:41:25;6.65;;;2.50;;
35223;SDS011;21367;51.930;8.112;2022-08-19T13:46:29;3.97;;;2.67;;
35223;SDS011;21367;51.930;8.112;2022-08-19T13:51:33;3.77;;;2.60;;
35223;SDS011;21367;51.930;8.112;2022-08-19T13:56:42;3.53;;;2.50;;
35223;SDS011;21367;51.930;8.112;2022-08-19T14:01:47;7.60;;;3.35;;
35223;SDS011;21367;51.930;8.112;2022-08-19T14:06:50;9.47;;;3.37;;
35223;SDS011;21367;51.930;8.112;2022-08-19T14:11:58;4.73;;;3.90;;
35223;SDS011;21367;51.930;8.112;2022-08-19T14:17:05;7.55;;;3.17;;
35223;SDS011;21367;51.930;8.112;2022-08-19T14:22:09;6.72;;;3.83;;
35223;SDS011;21367;51.930;8.112;2022-08-19T14:27:15;5.95;;;3.78;;
35223;SDS011;21367;51.930;8.112;2022-08-19T14:32:19;7.40;;;3.70;;
35223;SDS011;21367;51.930;8.112;2022-08-19T14:37:23;9.63;;;3.77;;
35223;SDS011;21367;51.930;8.112;2022-08-19T14:42:29;9.40;;;4.00;;
35223;SDS011;21367;51.930;8.112;2022-08-19T14:47:33;6.20;;;4.00;;
35223;SDS011;21367;51.930;8.112;2022-08-19T14:52:39;8.40;;;4.28;;
35223;SDS011;21367;51.930;8.112;2022-08-19T14:57:46;4.68;;;3.45;;
35223;SDS011;21367;51.930;8.112;2022-08-19T15:02:51;14.90;;;3.80;;
35223;SDS011;21367;51.930;8.112;2022-08-19T15:07:56;7.88;;;3.58;;
35223;SDS011;21367;51.930;8.112;2022-08-19T15:13:02;6.32;;;4.43;;
35223;SDS011;21367;51.930;8.112;2022-08-19T15:18:06;8.10;;;3.58;;
35223;SDS011;21367;51.930;8.112;2022-08-19T15:23:12;8.50;;;4.07;;
35223;SDS011;21367;51.930;8.112;2022-08-19T15:28:27;8.07;;;4.00;;
35223;SDS011;21367;51.930;8.112;2022-08-19T15:33:31;7.97;;;3.60;;
35223;SDS011;21367;51.930;8.112;2022-08-19T15:38:37;10.15;;;3.97;;
35223;SDS011;21367;51.930;8.112;2022-08-19T15:43:44;5.30;;;3.53;;
35223;SDS011;21367;51.930;8.112;2022-08-19T15:48:49;8.13;;;4.05;;
35223;SDS011;21367;51.930;8.112;2022-08-19T15:53:53;8.83;;;3.90;;
35223;SDS011;21367;51.930;8.112;2022-08-19T15:58:59;9.30;;;3.77;;
35223;SDS011;21367;51.930;8.112;2022-08-19T16:04:15;7.65;;;4.70;;
35223;SDS011;21367;51.930;8.112;2022-08-19T16:09:31;8.73;;;5.05;;
35223;SDS011;21367;51.930;8.112;2022-08-19T16:14:38;8.10;;;3.90;;
35223;SDS011;21367;51.930;8.112;2022-08-19T16:19:41;10.73;;;4.55;;
35223;SDS011;21367;51.930;8.112;2022-08-19T16:24:45;6.88;;;4.78;;
35223;SDS011;21367;51.930;8.112;2022-08-19T16:29:51;13.65;;;5.05;;
35223;SDS011;21367;51.930;8.112;2022-08-19T16:34:55;16.10;;;5.00;;
35223;SDS011;21367;51.930;8.112;2022-08-19T16:39:59;5.95;;;4.85;;
35223;SDS011;21367;51.930;8.112;2022-08-19T16:45:06;16.45;;;4.88;;
35223;SDS011;21367;51.930;8.112;2022-08-19T16:50:11;10.65;;;5.03;;
35223;SDS011;21367;51.930;8.112;2022-08-19T16:55:14;11.40;;;5.30;;
35223;SDS011;21367;51.930;8.112;2022-08-19T17:00:21;11.18;;;5.00;;
35223;SDS011;21367;51.930;8.112;2022-08-19T17:05:24;12.52;;;5.32;;
35223;SDS011;21367;51.930;8.112;2022-08-19T17:10:28;14.35;;;5.68;;
35223;SDS011;21367;51.930;8.112;2022-08-19T17:15:34;7.88;;;5.22;;
35223;SDS011;21367;51.930;8.112;2022-08-19T17:20:39;12.75;;;5.63;;
35223;SDS011;21367;51.930;8.112;2022-08-19T17:25:46;14.82;;;5.28;;
35223;SDS011;21367;51.930;8.112;2022-08-19T17:30:53;7.20;;;5.18;;
35223;SDS011;21367;51.930;8.112;2022-08-19T17:35:57;9.43;;;4.80;;
35223;SDS011;21367;51.930;8.112;2022-08-19T17:41:03;15.88;;;5.25;;
35223;SDS011;21367;51.930;8.112;2022-08-19T17:46:10;11.40;;;5.90;;
35223;SDS011;21367;51.930;8.112;2022-08-19T17:51:18;12.45;;;5.93;;
35223;SDS011;21367;51.930;8.112;2022-08-19T17:56:24;8.77;;;5.03;;
35223;SDS011;21367;51.930;8.112;2022-08-19T18:01:30;15.85;;;5.80;;
35223;SDS011;21367;51.930;8.112;2022-08-19T18:06:34;12.05;;;5.53;;
35223;SDS011;21367;51.930;8.112;2022-08-19T18:11:38;12.90;;;5.43;;
35223;SDS011;21367;51.930;8.112;2022-08-19T18:16:46;11.25;;;5.60;;
35223;SDS011;21367;51.930;8.112;2022-08-19T18:21:50;11.70;;;5.60;;
35223;SDS011;21367;51.930;8.112;2022-08-19T18:26:56;10.25;;;5.50;;
35223;SDS011;21367;51.930;8.112;2022-08-19T18:32:02;12.85;;;5.32;;
35223;SDS011;21367;51.930;8.112;2022-08-19T18:37:08;14.38;;;5.90;;
35223;SDS011;21367;51.930;8.112;2022-08-19T18:42:12;12.65;;;5.30;;
35223;SDS011;21367;51.930;8.112;2022-08-19T18:47:31;13.45;;;6.32;;
35223;SDS011;21367;51.930;8.112;2022-08-19T18:52:47;8.52;;;5.93;;
35223;SDS011;21367;51.930;8.112;2022-08-19T18:57:52;12.35;;;7.20;;
35223;SDS011;21367;51.930;8.112;2022-08-19T19:02:58;15.63;;;6.35;;
35223;SDS011;21367;51.930;8.112;2022-08-19T19:08:03;17.25;;;6.80;;
35223;SDS011;21367;51.930;8.112;2022-08-19T19:13:07;14.35;;;6.03;;
35223;SDS011;21367;51.930;8.112;2022-08-19T19:18:17;9.30;;;5.65;;
35223;SDS011;21367;51.930;8.112;2022-08-19T19:23:21;10.57;;;6.32;;
35223;SDS011;21367;51.930;8.112;2022-08-19T19:28:26;15.43;;;6.50;;
35223;SDS011;21367;51.930;8.112;2022-08-19T19:33:33;20.17;;;6.53;;
35223;SDS011;21367;51.930;8.112;2022-08-19T19:38:37;12.00;;;6.50;;
35223;SDS011;21367;51.930;8.112;2022-08-19T19:43:43;11.73;;;6.93;;
35223;SDS011;21367;51.930;8.112;2022-08-19T19:48:50;11.63;;;7.33;;
35223;SDS011;21367;51.930;8.112;2022-08-19T19:53:54;18.65;;;7.47;;
35223;SDS011;21367;51.930;8.112;2022-08-19T19:58:58;13.25;;;7.25;;
35223;SDS011;21367;51.930;8.112;2022-08-19T20:04:06;16.83;;;9.18;;
35223;SDS011;21367;51.930;8.112;2022-08-19T20:09:10;16.92;;;10.00;;
35223;SDS011;21367;51.930;8.112;2022-08-19T20:14:17;26.48;;;11.63;;
35223;SDS011;21367;51.930;8.112;2022-08-19T20:19:26;28.05;;;11.90;;
35223;SDS011;21367;51.930;8.112;2022-08-19T20:24:33;27.30;;;12.70;;
35223;SDS011;21367;51.930;8.112;2022-08-19T20:29:38;35.38;;;14.32;;
35223;SDS011;21367;51.930;8.112;2022-08-19T20:34:45;27.42;;;13.70;;
35223;SDS011;21367;51.930;8.112;2022-08-19T20:39:50;24.05;;;12.63;;
35223;SDS011;21367;51.930;8.112;2022-08-19T20:44:54;22.40;;;11.90;;
35223;SDS011;21367;51.930;8.112;2022-08-19T20:50:01;25.02;;;13.65;;
35223;SDS011;21367;51.930;8.112;2022-08-19T20:55:07;24.10;;;13.57;;
35223;SDS011;21367;51.930;8.112;2022-08-19T21:00:12;34.15;;;14.95;;
35223;SDS011;21367;51.930;8.112;2022-08-19T21:05:19;34.87;;;16.67;;
35223;SDS011;21367;51.930;8.112;2022-08-19T21:10:23;31.67;;;15.70;;
35223;SDS011;21367;51.930;8.112;2022-08-19T21:15:28;28.83;;;16.27;;
35223;SDS011;21367;51.930;8.112;2022-08-19T21:20:39;24.85;;;15.30;;
35223;SDS011;21367;51.930;8.112;2022-08-19T21:25:44;31.67;;;16.42;;
35223;SDS011;21367;51.930;8.112;2022-08-19T21:30:47;31.83;;;16.85;;
35223;SDS011;21367;51.930;8.112;2022-08-19T21:35:55;28.40;;;17.38;;
35223;SDS011;21367;51.930;8.112;2022-08-19T21:41:00;32.47;;;18.15;;
35223;SDS011;21367;51.930;8.112;2022-08-19T21:46:05;27.60;;;16.45;;
35223;SDS011;21367;51.930;8.112;2022-08-19T21:51:12;30.52;;;16.55;;
35223;SDS011;21367;51.930;8.112;2022-08-19T21:56:16;27.20;;;17.20;;
35223;SDS011;21367;51.930;8.112;2022-08-19T22:01:20;31.92;;;18.13;;
35223;SDS011;21367;51.930;8.112;2022-08-19T22:06:26;30.48;;;17.45;;
35223;SDS011;21367;51.930;8.112;2022-08-19T22:11:29;34.72;;;17.70;;
35223;SDS011;21367;51.930;8.112;2022-08-19T22:16:33;31.50;;;17.90;;
35223;SDS011;21367;51.930;8.112;2022-08-19T22:21:40;29.58;;;17.73;;
35223;SDS011;21367;51.930;8.112;2022-08-19T22:26:43;38.00;;;18.48;;
35223;SDS011;21367;51.930;8.112;2022-08-19T22:31:47;32.03;;;18.40;;
35223;SDS011;21367;51.930;8.112;2022-08-19T22:36:54;37.92;;;19.35;;
35223;SDS011;21367;51.930;8.112;2022-08-19T22:41:58;36.13;;;20.08;;
35223;SDS011;21367;51.930;8.112;2022-08-19T22:47:03;33.65;;;19.65;;
35223;SDS011;21367;51.930;8.112;2022-08-19T22:52:09;35.58;;;18.60;;
35223;SDS011;21367;51.930;8.112;2022-08-19T22:57:22;31.20;;;18.88;;
35223;SDS011;21367;51.930;8.112;2022-08-19T23:02:28;36.58;;;19.73;;
35223;SDS011;21367;51.930;8.112;2022-08-19T23:07:37;31.55;;;16.05;;
35223;SDS011;21367;51.930;8.112;2022-08-19T23:12:43;33.55;;;17.73;;
35223;SDS011;21367;51.930;8.112;2022-08-19T23:17:49;31.27;;;17.70;;
35223;SDS011;21367;51.930;8.112;2022-08-19T23:22:56;32.83;;;19.15;;
35223;SDS011;21367;51.930;8.112;2022-08-19T23:28:01;37.53;;;21.30;;
35223;SDS011;21367;51.930;8.112;2022-08-19T23:33:18;38.85;;;23.33;;
35223;SDS011;21367;51.930;8.112;2022-08-19T23:38:28;42.10;;;22.20;;
35223;SDS011;21367;51.930;8.112;2022-08-19T23:43:33;38.13;;;23.13;;
35223;SDS011;21367;51.930;8.112;2022-08-19T23:48:38;40.53;;;23.42;;
35223;SDS011;21367;51.930;8.112;2022-08-19T23:53:45;39.92;;;21.33;;
35223;SDS011;21367;51.930;8.112;2022-08-19T23:58:48;33.85;;;21.98;;
